createdAt,value
2019-03-21T00:01:00.023Z,4.23
2019-03-21T00:02:00.208Z,4.20
2019-03-21T00:03:00.387Z,4.22
2019-03-21T00:04:00.578Z,4.24
2019-03-21T00:05:00.754Z,4.20
2019-03-21T00:06:01.002Z,4.14
2019-03-21T00:07:01.125Z,4.14
2019-03-21T00:08:01.303Z,4.12
2019-03-21T00:09:01.504Z,4.18
2019-03-21T00:10:01.670Z,4.05
2019-03-21T00:11:01.846Z,4.12
2019-03-21T00:12:02.030Z,4.18
2019-03-21T00:13:02.212Z,4.15
2019-03-21T00:14:06.898Z,4.11
2019-03-21T00:15:02.584Z,4.05
2019-03-21T00:16:02.765Z,4.02
2019-03-21T00:17:02.957Z,4.05
2019-03-21T00:18:03.136Z,4.00
2019-03-21T00:19:03.319Z,3.91
2019-03-21T00:20:03.498Z,3.91
2019-03-21T00:21:03.680Z,3.94
2019-03-21T00:22:03.862Z,3.90
2019-03-21T00:23:04.043Z,4.02
2019-03-21T00:24:04.231Z,3.91
2019-03-21T00:25:04.400Z,3.86
2019-03-21T00:26:04.588Z,3.88
2019-03-21T00:27:04.769Z,3.83
2019-03-21T00:28:04.958Z,3.79
2019-03-21T00:29:05.131Z,3.79
2019-03-21T00:30:05.305Z,3.78
2019-03-21T00:31:05.492Z,3.70
2019-03-21T00:32:05.676Z,3.75
2019-03-21T00:33:05.859Z,3.66
2019-03-21T00:34:06.042Z,3.69
2019-03-21T00:35:06.222Z,3.70
2019-03-21T00:36:06.402Z,3.62
2019-03-21T00:37:06.583Z,3.69
2019-03-21T00:38:06.779Z,3.65
2019-03-21T00:39:06.963Z,3.54
2019-03-21T00:40:07.145Z,3.55
2019-03-21T00:41:07.327Z,3.57
2019-03-21T00:42:07.507Z,3.62
2019-03-21T00:43:07.682Z,3.60
2019-03-21T00:44:17.820Z,3.57
2019-03-21T00:45:08.041Z,3.62
2019-03-21T00:46:08.226Z,3.68
2019-03-21T00:47:08.407Z,3.60
2019-03-21T00:48:08.578Z,3.57
2019-03-21T00:49:08.779Z,3.52
2019-03-21T00:50:08.961Z,3.52
2019-03-21T00:51:09.143Z,3.51
2019-03-21T00:52:09.326Z,3.42
2019-03-21T00:53:09.507Z,3.45
2019-03-21T00:54:09.685Z,3.39
2019-03-21T00:55:09.870Z,3.33
2019-03-21T00:56:10.054Z,3.47
2019-03-21T00:57:10.240Z,3.40
2019-03-21T00:58:10.415Z,3.42
2019-03-21T00:59:10.600Z,3.35
2019-03-21T01:00:10.776Z,3.26
2019-03-21T01:01:10.957Z,3.32
2019-03-21T01:02:11.145Z,3.35
2019-03-21T01:03:11.327Z,3.33
2019-03-21T01:04:11.505Z,3.32
2019-03-21T01:05:11.691Z,3.28
2019-03-21T01:06:11.864Z,3.26
2019-03-21T01:07:12.107Z,3.32
2019-03-21T01:08:12.233Z,3.31
2019-03-21T01:09:12.410Z,3.26
2019-03-21T01:10:12.593Z,3.28
2019-03-21T01:11:12.820Z,3.32
2019-03-21T01:12:12.982Z,3.28
2019-03-21T01:13:13.171Z,3.29
2019-03-21T01:14:13.348Z,3.33
2019-03-21T01:15:13.536Z,3.26
2019-03-21T01:16:13.714Z,3.21
2019-03-21T01:17:13.904Z,3.23
2019-03-21T01:18:14.137Z,3.21
2019-03-21T01:19:14.269Z,3.24
2019-03-21T01:20:14.454Z,3.24
2019-03-21T01:21:14.628Z,3.17
2019-03-21T01:22:14.812Z,3.14
2019-03-21T01:23:14.993Z,3.13
2019-03-21T01:24:15.171Z,3.14
2019-03-21T01:25:15.354Z,3.11
2019-03-21T01:26:15.530Z,3.18
2019-03-21T01:27:15.711Z,3.23
2019-03-21T01:28:15.932Z,3.11
2019-03-21T01:29:16.070Z,3.02
2019-03-21T01:30:16.251Z,3.00
2019-03-21T01:31:16.438Z,3.08
2019-03-21T01:32:16.614Z,3.10
2019-03-21T01:33:16.791Z,3.24
2019-03-21T01:34:16.976Z,3.20
2019-03-21T01:35:17.161Z,3.06
2019-03-21T01:36:17.340Z,3.08
2019-03-21T01:37:17.530Z,3.17
2019-03-21T01:38:17.715Z,3.15
2019-03-21T01:39:17.901Z,3.03
2019-03-21T01:40:18.077Z,3.06
2019-03-21T01:41:18.266Z,3.08
2019-03-21T01:42:18.449Z,3.02
2019-03-21T01:43:18.632Z,3.03
2019-03-21T01:44:18.813Z,3.06
2019-03-21T01:45:18.992Z,3.00
2019-03-21T01:46:19.171Z,3.13
2019-03-21T01:47:19.362Z,3.00
2019-03-21T01:48:19.539Z,3.03
2019-03-21T01:49:19.717Z,3.06
2019-03-21T01:50:19.890Z,2.99
2019-03-21T01:51:20.069Z,2.99
2019-03-21T01:52:20.249Z,2.96
2019-03-21T01:53:20.434Z,3.02
2019-03-21T01:54:20.609Z,2.90
2019-03-21T01:55:20.794Z,2.96
2019-03-21T01:56:20.968Z,2.90
2019-03-21T01:57:21.145Z,3.00
2019-03-21T01:58:21.327Z,2.90
2019-03-21T01:59:21.509Z,2.93
2019-03-21T02:00:21.691Z,2.85
2019-03-21T02:01:21.876Z,2.89
2019-03-21T02:02:22.051Z,2.82
2019-03-21T02:03:22.233Z,2.82
2019-03-21T02:04:22.423Z,2.84
2019-03-21T02:05:22.599Z,2.84
2019-03-21T02:06:22.776Z,2.84
2019-03-21T02:07:22.966Z,2.89
2019-03-21T02:08:23.141Z,2.81
2019-03-21T02:09:23.324Z,2.78
2019-03-21T02:10:23.504Z,2.82
2019-03-21T02:11:23.690Z,2.79
2019-03-21T02:12:23.869Z,2.81
2019-03-21T02:13:24.052Z,2.75
2019-03-21T02:14:24.231Z,2.84
2019-03-21T02:15:25.045Z,2.82
2019-03-21T02:16:24.594Z,2.81
2019-03-21T02:17:24.774Z,2.72
2019-03-21T02:18:24.954Z,2.71
2019-03-21T02:19:25.134Z,2.71
2019-03-21T02:20:25.314Z,2.69
2019-03-21T02:21:25.495Z,2.67
2019-03-21T02:22:25.672Z,2.63
2019-03-21T02:23:25.853Z,2.72
2019-03-21T02:24:26.030Z,2.66
2019-03-21T02:25:26.215Z,2.72
2019-03-21T02:26:26.391Z,2.72
2019-03-21T02:27:26.576Z,2.81
2019-03-21T02:28:26.759Z,2.77
2019-03-21T02:29:26.939Z,2.72
2019-03-21T02:30:27.125Z,2.77
2019-03-21T02:31:27.304Z,2.64
2019-03-21T02:32:27.506Z,2.67
2019-03-21T02:33:27.684Z,2.71
2019-03-21T02:34:27.854Z,2.66
2019-03-21T02:35:30.955Z,2.72
2019-03-21T02:36:28.223Z,2.67
2019-03-21T02:37:28.397Z,2.57
2019-03-21T02:38:28.586Z,2.64
2019-03-21T02:39:28.761Z,2.59
2019-03-21T02:40:28.938Z,2.63
2019-03-21T02:41:29.122Z,2.69
2019-03-21T02:42:29.298Z,2.57
2019-03-21T02:43:29.480Z,2.71
2019-03-21T02:44:29.660Z,2.64
2019-03-21T02:45:29.841Z,2.61
2019-03-21T02:46:30.020Z,2.64
2019-03-21T02:47:30.197Z,2.59
2019-03-21T02:48:30.375Z,2.54
2019-03-21T02:49:30.552Z,2.56
2019-03-21T02:50:30.731Z,2.53
2019-03-21T02:51:30.916Z,2.54
2019-03-21T02:52:31.092Z,2.57
2019-03-21T02:53:31.292Z,2.53
2019-03-21T02:54:31.466Z,2.53
2019-03-21T02:55:31.648Z,2.45
2019-03-21T02:56:31.826Z,2.49
2019-03-21T02:57:32.007Z,2.48
2019-03-21T02:58:32.194Z,2.53
2019-03-21T02:59:32.370Z,2.49
2019-03-21T03:00:32.548Z,2.45
2019-03-21T03:01:32.730Z,2.49
2019-03-21T03:02:32.912Z,2.49
2019-03-21T03:03:33.098Z,2.52
2019-03-21T03:04:33.268Z,2.46
2019-03-21T03:05:33.452Z,2.43
2019-03-21T03:06:33.629Z,2.38
2019-03-21T03:07:33.816Z,2.31
2019-03-21T03:08:33.989Z,2.39
2019-03-21T03:09:34.166Z,2.38
2019-03-21T03:10:34.352Z,2.39
2019-03-21T03:11:34.537Z,2.41
2019-03-21T03:12:34.715Z,2.38
2019-03-21T03:13:34.907Z,2.43
2019-03-21T03:14:35.098Z,2.41
2019-03-21T03:15:35.271Z,2.43
2019-03-21T03:16:35.454Z,2.36
2019-03-21T03:17:35.632Z,2.34
2019-03-21T03:18:35.815Z,2.34
2019-03-21T03:19:36.001Z,2.35
2019-03-21T03:20:36.185Z,2.38
2019-03-21T03:21:36.360Z,2.31
2019-03-21T03:22:36.551Z,2.38
2019-03-21T03:23:36.718Z,2.35
2019-03-21T03:24:36.918Z,2.28
2019-03-21T03:25:37.084Z,2.17
2019-03-21T03:26:37.268Z,2.31
2019-03-21T03:27:37.448Z,2.12
2019-03-21T03:28:37.637Z,2.24
2019-03-21T03:29:37.813Z,2.23
2019-03-21T03:30:37.984Z,2.30
2019-03-21T03:31:38.182Z,2.23
2019-03-21T03:32:38.364Z,2.18
2019-03-21T03:33:38.540Z,2.17
2019-03-21T03:34:38.734Z,2.24
2019-03-21T03:35:38.904Z,2.12
2019-03-21T03:36:39.090Z,2.23
2019-03-21T03:37:39.256Z,2.16
2019-03-21T03:38:39.427Z,2.24
2019-03-21T03:39:39.611Z,2.12
2019-03-21T03:40:39.793Z,2.02
2019-03-21T03:44:22.828Z,1.88
2019-03-21T03:45:36.283Z,1.91
2019-03-21T03:46:23.180Z,1.87
2019-03-21T03:47:23.368Z,1.86
2019-03-21T03:48:23.537Z,1.86
2019-03-21T03:49:23.729Z,1.93
2019-03-21T03:50:23.907Z,1.91
2019-03-21T03:51:24.086Z,1.88
2019-03-21T03:52:24.275Z,1.84
2019-03-21T03:53:24.444Z,1.76
2019-03-21T03:54:24.625Z,1.83
2019-03-21T03:55:24.806Z,1.84
2019-03-21T03:56:24.978Z,1.79
2019-03-21T03:57:25.156Z,1.76
2019-03-21T03:58:25.337Z,1.77
2019-03-21T03:59:25.513Z,1.77
2019-03-21T04:00:25.902Z,1.83
2019-03-21T04:01:25.931Z,1.73
2019-03-21T04:02:26.016Z,1.70
2019-03-21T04:03:26.231Z,1.80
2019-03-21T04:04:26.408Z,1.80
2019-03-21T04:05:26.582Z,1.73
2019-03-21T04:06:26.769Z,1.73
2019-03-21T04:07:26.953Z,1.76
2019-03-21T04:08:27.136Z,1.68
2019-03-21T04:09:27.305Z,1.73
2019-03-21T04:10:27.494Z,1.77
2019-03-21T04:11:27.664Z,1.73
2019-03-21T04:12:27.845Z,1.79
2019-03-21T04:13:28.024Z,1.80
2019-03-21T04:14:28.268Z,1.69
2019-03-21T04:15:28.423Z,1.84
2019-03-21T04:16:28.604Z,1.76
2019-03-21T04:17:28.770Z,1.77
2019-03-21T04:18:28.953Z,1.77
2019-03-21T04:19:29.143Z,1.77
2019-03-21T04:20:29.324Z,1.68
2019-03-21T04:21:29.549Z,1.69
2019-03-21T04:22:29.668Z,1.81
2019-03-21T04:23:29.863Z,1.76
2019-03-21T04:24:30.025Z,1.76
2019-03-21T04:25:30.206Z,1.77
2019-03-21T04:26:30.386Z,1.73
2019-03-21T04:27:30.572Z,1.70
2019-03-21T04:28:30.761Z,1.76
2019-03-21T04:29:30.927Z,1.70
2019-03-21T04:30:31.109Z,1.76
2019-03-21T04:31:31.283Z,1.81
2019-03-21T04:32:31.465Z,1.69
2019-03-21T04:33:31.657Z,1.77
2019-03-21T04:34:31.822Z,1.72
2019-03-21T04:35:32.002Z,1.66
2019-03-21T04:36:32.189Z,1.69
2019-03-21T04:37:32.361Z,1.77
2019-03-21T04:38:32.540Z,1.65
2019-03-21T04:39:32.717Z,1.70
2019-03-21T04:40:32.902Z,1.77
2019-03-21T04:41:33.079Z,1.69
2019-03-21T04:42:33.267Z,1.63
2019-03-21T04:43:33.445Z,1.63
2019-03-21T04:44:33.626Z,1.59
2019-03-21T04:45:33.800Z,1.58
2019-03-21T04:46:33.977Z,1.69
2019-03-21T04:47:34.151Z,1.66
2019-03-21T04:48:34.340Z,1.69
2019-03-21T04:49:34.510Z,1.59
2019-03-21T04:50:34.693Z,1.68
2019-03-21T04:51:34.870Z,1.68
2019-03-21T04:52:35.051Z,1.58
2019-03-21T04:53:35.227Z,1.65
2019-03-21T04:54:35.410Z,1.65
2019-03-21T04:55:35.591Z,1.59
2019-03-21T04:56:35.763Z,1.58
2019-03-21T04:57:35.943Z,1.52
2019-03-21T04:58:36.116Z,1.52
2019-03-21T04:59:36.295Z,1.47
2019-03-21T05:00:36.480Z,1.44
2019-03-21T05:01:36.657Z,1.55
2019-03-21T05:02:36.839Z,1.47
2019-03-21T05:03:37.016Z,1.48
2019-03-21T05:04:37.193Z,1.55
2019-03-21T05:05:37.371Z,1.50
2019-03-21T05:06:37.548Z,1.52
2019-03-21T05:07:37.738Z,1.47
2019-03-21T05:08:37.921Z,1.54
2019-03-21T05:09:38.092Z,1.40
2019-03-21T05:10:38.274Z,1.52
2019-03-21T05:11:38.451Z,1.41
2019-03-21T05:12:38.632Z,1.44
2019-03-21T05:13:38.814Z,1.45
2019-03-21T05:14:38.996Z,1.42
2019-03-21T05:15:39.183Z,1.54
2019-03-21T05:16:39.356Z,1.47
2019-03-21T05:17:39.538Z,1.48
2019-03-21T05:18:39.716Z,1.47
2019-03-21T05:19:39.898Z,1.41
2019-03-21T05:20:40.080Z,1.37
2019-03-21T05:21:40.262Z,1.42
2019-03-21T05:22:40.437Z,1.37
2019-03-21T05:23:40.627Z,1.36
2019-03-21T05:24:40.799Z,1.55
2019-03-21T05:25:40.977Z,1.52
2019-03-21T05:26:41.170Z,1.51
2019-03-21T05:27:41.331Z,1.51
2019-03-21T05:28:41.512Z,1.51
2019-03-21T05:29:41.699Z,1.59
2019-03-21T05:30:41.876Z,1.55
2019-03-21T05:31:42.056Z,1.51
2019-03-21T05:32:42.237Z,1.60
2019-03-21T05:33:42.416Z,1.66
2019-03-21T05:34:42.597Z,1.63
2019-03-21T05:35:42.777Z,1.59
2019-03-21T05:36:42.987Z,1.73
2019-03-21T05:37:43.154Z,1.70
2019-03-21T05:38:43.337Z,1.84
2019-03-21T05:39:43.516Z,1.80
2019-03-21T05:40:43.693Z,1.84
2019-03-21T05:41:43.874Z,1.86
2019-03-21T05:42:44.058Z,1.88
2019-03-21T05:43:44.243Z,2.03
2019-03-21T05:44:44.428Z,2.09
2019-03-21T05:45:44.607Z,2.12
2019-03-21T05:46:44.789Z,2.21
2019-03-21T05:47:44.964Z,2.23
2019-03-21T05:48:45.140Z,2.27
2019-03-21T05:49:45.325Z,2.18
2019-03-21T05:50:45.552Z,2.17
2019-03-21T05:51:45.745Z,2.35
2019-03-21T05:52:45.923Z,2.38
2019-03-21T05:53:46.105Z,2.48
2019-03-21T05:54:46.289Z,2.60
2019-03-21T05:55:46.474Z,2.53
2019-03-21T05:56:46.665Z,2.71
2019-03-21T05:57:46.844Z,2.93
2019-03-21T05:58:47.024Z,3.05
2019-03-21T05:59:47.206Z,3.23
2019-03-21T06:00:47.392Z,3.39
2019-03-21T06:01:47.574Z,3.69
2019-03-21T06:02:47.778Z,3.96
2019-03-21T06:03:47.957Z,4.04
2019-03-21T06:04:48.150Z,4.15
2019-03-21T06:05:48.330Z,4.14
2019-03-21T06:06:48.510Z,4.23
2019-03-21T06:07:48.688Z,4.05
2019-03-21T06:08:48.868Z,4.27
2019-03-21T06:09:49.055Z,4.37
2019-03-21T06:10:49.236Z,4.77
2019-03-21T06:11:49.419Z,5.12
2019-03-21T06:12:49.599Z,5.61
2019-03-21T06:13:49.782Z,5.90
2019-03-21T06:14:49.965Z,6.19
2019-03-21T06:15:50.154Z,6.51
2019-03-21T06:16:50.331Z,6.94
2019-03-21T06:17:50.511Z,7.31
2019-03-21T06:18:50.696Z,7.27
2019-03-21T06:19:50.880Z,7.20
2019-03-21T06:20:51.066Z,7.12
2019-03-21T06:21:51.249Z,7.21
2019-03-21T06:22:51.434Z,7.13
2019-03-21T06:23:51.621Z,7.58
2019-03-21T06:24:51.810Z,7.69
2019-03-21T06:25:51.991Z,7.58
2019-03-21T06:26:52.179Z,7.74
2019-03-21T06:27:52.361Z,7.97
2019-03-21T06:28:52.556Z,8.28
2019-03-21T06:29:52.738Z,8.30
2019-03-21T06:30:52.923Z,8.16
2019-03-21T06:31:53.116Z,8.19
2019-03-21T06:32:53.297Z,8.02
2019-03-21T06:33:53.483Z,8.00
2019-03-21T06:34:53.670Z,8.23
2019-03-21T06:35:53.855Z,8.18
2019-03-21T06:36:54.046Z,8.04
2019-03-21T06:37:54.232Z,8.26
2019-03-21T06:38:54.422Z,8.48
2019-03-21T06:39:54.626Z,8.77
2019-03-21T06:40:54.803Z,8.99
2019-03-21T06:41:55.001Z,8.96
2019-03-21T06:42:55.192Z,9.02
2019-03-21T06:43:55.367Z,8.98
2019-03-21T06:44:55.558Z,8.74
2019-03-21T06:45:55.743Z,8.99
2019-03-21T06:46:55.935Z,9.10
2019-03-21T06:47:56.122Z,8.99
2019-03-21T06:48:56.315Z,9.31
2019-03-21T06:49:56.501Z,9.38
2019-03-21T06:50:56.693Z,9.42
2019-03-21T06:51:56.885Z,9.53
2019-03-21T06:52:57.075Z,9.58
2019-03-21T06:53:57.261Z,9.47
2019-03-21T06:54:59.744Z,9.66
2019-03-21T06:55:57.636Z,9.78
2019-03-21T06:56:57.825Z,9.68
2019-03-21T06:57:58.019Z,10.22
2019-03-21T06:58:58.211Z,10.59
2019-03-21T06:59:58.396Z,10.20
2019-03-21T07:00:58.583Z,9.89
2019-03-21T07:01:58.777Z,9.78
2019-03-21T07:02:58.969Z,9.18
2019-03-21T07:04:07.178Z,8.70
2019-03-21T07:04:59.336Z,8.91
2019-03-21T07:05:59.536Z,9.14
2019-03-21T07:07:08.109Z,9.38
2019-03-21T07:07:59.926Z,9.51
2019-03-21T07:09:00.109Z,9.61
2019-03-21T07:10:00.371Z,9.60
2019-03-21T07:11:00.562Z,9.87
2019-03-21T07:12:00.681Z,10.14
2019-03-21T07:13:00.879Z,10.30
2019-03-21T07:14:01.073Z,10.15
2019-03-21T07:15:01.265Z,10.04
2019-03-21T07:16:01.450Z,10.11
2019-03-21T07:17:01.642Z,10.38
2019-03-21T07:18:01.838Z,10.59
2019-03-21T07:19:02.033Z,10.78
2019-03-21T07:20:02.240Z,10.86
2019-03-21T07:21:02.414Z,11.21
2019-03-21T07:22:02.616Z,11.40
2019-03-21T07:23:02.817Z,11.61
2019-03-21T07:24:02.999Z,11.62
2019-03-21T07:25:03.214Z,11.33
2019-03-21T07:26:03.408Z,11.47
2019-03-21T07:27:03.600Z,11.64
2019-03-21T07:28:03.782Z,11.86
2019-03-21T07:29:03.983Z,11.95
2019-03-21T07:30:04.185Z,12.07
2019-03-21T07:31:04.367Z,12.57
2019-03-21T07:32:04.555Z,12.67
2019-03-21T07:33:04.751Z,12.74
2019-03-21T07:34:04.954Z,12.47
2019-03-21T07:35:05.143Z,12.13
2019-03-21T07:36:05.341Z,12.02
2019-03-21T07:37:05.536Z,12.05
2019-03-21T07:38:05.734Z,11.43
2019-03-21T07:39:05.928Z,11.25
2019-03-21T07:40:06.116Z,11.04
2019-03-21T07:41:06.317Z,11.04
2019-03-21T07:42:06.515Z,11.10
2019-03-21T07:43:06.699Z,11.40
2019-03-21T07:44:06.896Z,11.55
2019-03-21T07:45:07.085Z,11.67
2019-03-21T07:46:07.274Z,11.88
2019-03-21T07:47:12.638Z,12.21
2019-03-21T07:48:07.662Z,12.12
2019-03-21T07:49:07.856Z,11.96
2019-03-21T07:50:08.048Z,12.24
2019-03-21T07:51:08.244Z,12.12
2019-03-21T07:52:08.442Z,12.17
2019-03-21T07:53:08.641Z,12.20
2019-03-21T07:54:08.849Z,12.02
2019-03-21T07:55:09.033Z,12.24
2019-03-21T07:56:09.229Z,11.98
2019-03-21T07:57:09.425Z,11.79
2019-03-21T07:58:09.622Z,12.20
2019-03-21T07:59:09.816Z,12.13
2019-03-21T08:00:10.014Z,12.34
2019-03-21T08:01:10.206Z,12.46
2019-03-21T08:02:10.406Z,12.46
2019-03-21T08:03:10.592Z,12.52
2019-03-21T08:04:10.798Z,12.70
2019-03-21T08:05:10.997Z,13.00
2019-03-21T08:06:11.196Z,13.12
2019-03-21T08:07:11.395Z,13.00
2019-03-21T08:08:11.589Z,13.20
2019-03-21T08:09:11.790Z,13.15
2019-03-21T08:10:11.987Z,13.03
2019-03-21T08:11:12.183Z,13.19
2019-03-21T08:12:12.382Z,13.14
2019-03-21T08:13:12.577Z,13.32
2019-03-21T08:14:12.770Z,13.66
2019-03-21T08:15:12.959Z,13.87
2019-03-21T08:16:13.156Z,13.92
2019-03-21T08:17:13.353Z,14.25
2019-03-21T08:18:13.552Z,14.32
2019-03-21T08:19:13.750Z,14.33
2019-03-21T08:20:13.950Z,14.47
2019-03-21T08:21:14.147Z,14.94
2019-03-21T08:22:14.347Z,15.31
2019-03-21T08:23:14.537Z,15.10
2019-03-21T08:24:14.727Z,14.46
2019-03-21T08:25:14.928Z,14.50
2019-03-21T08:26:15.124Z,14.20
2019-03-21T08:27:15.332Z,14.24
2019-03-21T08:28:15.524Z,14.40
2019-03-21T08:29:15.724Z,15.17
2019-03-21T08:30:15.921Z,15.02
2019-03-21T08:31:16.119Z,15.13
2019-03-21T08:32:16.317Z,15.29
2019-03-21T08:33:16.514Z,14.89
2019-03-21T08:34:16.724Z,14.50
2019-03-21T08:35:16.920Z,14.99
2019-03-21T08:36:17.126Z,15.32
2019-03-21T08:37:17.321Z,15.41
2019-03-21T08:38:17.508Z,15.94
2019-03-21T08:39:17.707Z,15.65
2019-03-21T08:40:17.907Z,15.62
2019-03-21T08:41:18.098Z,15.94
2019-03-21T08:42:18.300Z,16.24
2019-03-21T08:43:18.495Z,16.68
2019-03-21T08:44:18.843Z,16.01
2019-03-21T08:45:18.888Z,15.68
2019-03-21T08:46:19.083Z,15.67
2019-03-21T08:47:19.281Z,15.75
2019-03-21T08:48:19.479Z,15.78
2019-03-21T08:49:19.677Z,15.28
2019-03-21T08:50:19.871Z,15.36
2019-03-21T08:51:20.079Z,15.21
2019-03-21T08:52:20.270Z,15.02
2019-03-21T08:53:20.472Z,15.28
2019-03-21T08:54:20.674Z,15.62
2019-03-21T08:55:20.872Z,15.46
2019-03-21T08:56:21.069Z,15.71
2019-03-21T08:57:21.264Z,15.67
2019-03-21T08:58:21.459Z,15.89
2019-03-21T08:59:21.666Z,15.96
2019-03-21T09:00:21.871Z,16.20
2019-03-21T09:01:22.059Z,16.68
2019-03-21T09:02:22.259Z,16.78
2019-03-21T09:03:22.463Z,17.00
2019-03-21T09:04:22.657Z,17.03
2019-03-21T09:05:22.856Z,16.50
2019-03-21T09:06:23.059Z,16.88
2019-03-21T09:07:23.262Z,16.81
2019-03-21T09:08:23.456Z,17.06
2019-03-21T09:09:23.725Z,17.30
2019-03-21T09:10:23.861Z,17.43
2019-03-21T09:11:24.029Z,18.02
2019-03-21T09:12:24.229Z,18.10
2019-03-21T09:13:24.428Z,19.18
2019-03-21T09:14:24.625Z,18.39
2019-03-21T09:15:24.822Z,18.41
2019-03-21T09:16:25.017Z,18.58
2019-03-21T09:17:25.217Z,18.67
2019-03-21T09:18:25.419Z,18.48
2019-03-21T09:19:25.614Z,18.12
2019-03-21T09:20:25.820Z,18.26
2019-03-21T09:21:26.027Z,18.12
2019-03-21T09:22:27.479Z,18.00
2019-03-21T09:23:26.426Z,18.07
2019-03-21T09:24:26.624Z,18.36
2019-03-21T09:25:26.826Z,18.33
2019-03-21T09:26:27.022Z,18.65
2019-03-21T09:27:27.221Z,19.04
2019-03-21T09:28:27.428Z,19.44
2019-03-21T09:29:27.631Z,18.82
2019-03-21T09:30:27.829Z,18.85
2019-03-21T09:31:28.033Z,19.47
2019-03-21T09:32:28.229Z,19.59
2019-03-21T09:33:28.439Z,19.91
2019-03-21T09:34:28.644Z,19.98
2019-03-21T09:35:28.846Z,20.10
2019-03-21T09:36:29.044Z,20.91
2019-03-21T09:37:29.247Z,20.61
2019-03-21T09:38:29.452Z,20.29
2019-03-21T09:39:29.654Z,19.77
2019-03-21T09:40:29.867Z,19.55
2019-03-21T09:41:30.071Z,19.26
2019-03-21T09:42:30.276Z,19.25
2019-03-21T09:43:30.483Z,19.23
2019-03-21T09:44:30.693Z,19.55
2019-03-21T09:45:30.887Z,19.77
2019-03-21T09:46:31.089Z,20.26
2019-03-21T09:47:31.283Z,20.24
2019-03-21T09:48:31.488Z,20.62
2019-03-21T09:49:31.697Z,20.42
2019-03-21T09:50:31.896Z,20.33
2019-03-21T09:51:32.094Z,21.42
2019-03-21T09:52:32.292Z,20.98
2019-03-21T09:53:32.491Z,20.77
2019-03-21T09:54:32.696Z,20.88
2019-03-21T09:55:32.903Z,20.84
2019-03-21T09:56:33.116Z,20.58
2019-03-21T09:57:33.311Z,20.38
2019-03-21T09:58:33.515Z,21.06
2019-03-21T09:59:33.706Z,21.68
2019-03-21T10:02:16.634Z,22.21
2019-03-21T10:03:16.835Z,21.80
2019-03-21T10:04:17.034Z,22.22
2019-03-21T10:05:17.227Z,22.70
2019-03-21T10:06:17.427Z,22.37
2019-03-21T10:07:17.627Z,21.53
2019-03-21T10:08:17.836Z,20.98
2019-03-21T10:09:18.056Z,21.06
2019-03-21T10:10:18.258Z,22.02
2019-03-21T10:11:18.491Z,21.92
2019-03-21T10:12:18.690Z,21.82
2019-03-21T10:13:18.884Z,21.71
2019-03-21T10:14:19.088Z,21.27
2019-03-21T10:15:19.286Z,21.61
2019-03-21T10:16:19.502Z,21.59
2019-03-21T10:17:19.684Z,21.84
2019-03-21T10:18:19.895Z,22.37
2019-03-21T10:19:20.079Z,22.21
2019-03-21T10:20:20.275Z,22.51
2019-03-21T10:21:20.498Z,22.82
2019-03-21T10:22:20.700Z,22.65
2019-03-21T10:23:20.900Z,23.25
2019-03-21T10:24:21.099Z,22.75
2019-03-21T10:25:21.302Z,21.50
2019-03-21T10:26:21.502Z,21.22
2019-03-21T10:27:21.699Z,21.14
2019-03-21T10:28:21.901Z,20.87
2019-03-21T10:29:22.096Z,21.12
2019-03-21T10:30:22.311Z,21.58
2019-03-21T10:31:22.510Z,22.03
2019-03-21T10:32:22.706Z,21.68
2019-03-21T10:33:22.912Z,21.65
2019-03-21T10:34:23.112Z,21.46
2019-03-21T10:35:23.313Z,21.04
2019-03-21T10:36:23.511Z,21.13
2019-03-21T10:37:23.712Z,20.95
2019-03-21T10:38:23.898Z,21.24
2019-03-21T10:39:24.102Z,21.31
2019-03-21T10:40:24.308Z,21.10
2019-03-21T10:41:24.507Z,21.52
2019-03-21T10:42:24.713Z,21.96
2019-03-21T10:43:24.910Z,22.55
2019-03-21T10:44:25.110Z,22.21
2019-03-21T10:45:25.308Z,22.20
2019-03-21T10:46:25.508Z,22.90
2019-03-21T10:47:25.709Z,23.25
2019-03-21T10:48:25.912Z,23.51
2019-03-21T10:49:26.112Z,23.04
2019-03-21T10:50:26.315Z,22.68
2019-03-21T10:51:26.520Z,21.99
2019-03-21T10:52:26.724Z,20.95
2019-03-21T10:53:26.924Z,20.39
2019-03-21T10:54:27.143Z,20.98
2019-03-21T10:55:27.320Z,21.65
2019-03-21T10:56:27.518Z,21.40
2019-03-21T10:57:27.722Z,21.27
2019-03-21T10:58:27.919Z,21.47
2019-03-21T10:59:28.122Z,21.13
2019-03-21T11:00:28.323Z,21.07
2019-03-21T11:01:28.520Z,21.16
2019-03-21T11:02:29.021Z,21.16
2019-03-21T11:03:28.973Z,20.70
2019-03-21T11:04:29.168Z,20.70
2019-03-21T11:05:29.367Z,20.61
2019-03-21T11:06:29.568Z,20.20
2019-03-21T11:07:29.768Z,20.67
2019-03-21T11:08:29.967Z,20.67
2019-03-21T11:09:30.172Z,20.59
2019-03-21T11:10:30.368Z,20.66
2019-03-21T11:11:30.571Z,20.43
2019-03-21T11:12:30.767Z,20.32
2019-03-21T11:13:30.970Z,19.88
2019-03-21T11:14:31.172Z,20.29
2019-03-21T11:15:31.376Z,20.33
2019-03-21T11:16:31.674Z,20.76
2019-03-21T11:17:31.771Z,21.34
2019-03-21T11:18:36.370Z,20.89
2019-03-21T11:19:32.167Z,21.52
2019-03-21T11:20:32.368Z,21.82
2019-03-21T11:21:32.572Z,21.42
2019-03-21T11:22:32.774Z,22.07
2019-03-21T11:23:32.974Z,22.61
2019-03-21T11:24:33.182Z,22.91
2019-03-21T11:25:33.377Z,23.02
2019-03-21T11:26:33.583Z,22.17
2019-03-21T11:27:33.773Z,21.47
2019-03-21T11:28:33.989Z,21.44
2019-03-21T11:29:34.187Z,20.36
2019-03-21T11:30:34.385Z,20.26
2019-03-21T11:31:34.590Z,20.10
2019-03-21T11:32:34.822Z,20.52
2019-03-21T11:33:34.983Z,20.36
2019-03-21T11:34:35.192Z,21.16
2019-03-21T11:35:35.387Z,21.56
2019-03-21T11:36:38.542Z,21.35
2019-03-21T11:37:35.798Z,21.67
2019-03-21T11:38:35.995Z,22.45
2019-03-21T11:39:36.194Z,22.72
2019-03-21T11:40:36.401Z,22.42
2019-03-21T11:41:36.608Z,21.88
2019-03-21T11:42:36.814Z,20.92
2019-03-21T11:43:36.992Z,19.94
2019-03-21T11:44:37.189Z,20.57
2019-03-21T11:45:37.382Z,20.98
2019-03-21T11:46:37.581Z,21.22
2019-03-21T11:47:42.084Z,21.04
2019-03-21T11:48:37.984Z,21.24
2019-03-21T11:49:38.190Z,20.61
2019-03-21T11:50:38.391Z,20.41
2019-03-21T11:51:38.601Z,20.54
2019-03-21T11:52:41.014Z,20.72
2019-03-21T11:53:38.997Z,21.14
2019-03-21T11:54:39.193Z,21.06
2019-03-21T11:55:39.405Z,21.03
2019-03-21T11:56:39.615Z,20.80
2019-03-21T11:57:39.796Z,21.35
2019-03-21T11:58:39.981Z,21.28
2019-03-21T11:59:51.171Z,21.04
2019-03-21T12:00:44.368Z,20.54
2019-03-21T12:01:40.572Z,20.06
2019-03-21T12:02:40.773Z,20.26
2019-03-21T12:03:40.971Z,20.64
2019-03-21T12:04:41.170Z,21.31
2019-03-21T12:05:41.367Z,21.19
2019-03-21T12:06:41.557Z,21.04
2019-03-21T12:07:41.771Z,20.69
2019-03-21T12:08:41.959Z,20.42
2019-03-21T12:09:42.156Z,19.78
2019-03-21T12:10:42.352Z,19.94
2019-03-21T12:11:42.551Z,20.42
2019-03-21T12:12:42.748Z,20.50
2019-03-21T12:13:42.953Z,20.42
2019-03-21T12:14:43.147Z,20.35
2019-03-21T12:15:43.344Z,20.24
2019-03-21T12:16:43.552Z,20.41
2019-03-21T12:17:43.749Z,20.13
2019-03-21T12:18:43.948Z,20.16
2019-03-21T12:19:44.142Z,20.35
2019-03-21T12:20:44.340Z,20.35
2019-03-21T12:21:44.534Z,20.39
2019-03-21T12:22:47.257Z,20.51
2019-03-21T12:23:44.934Z,20.57
2019-03-21T12:24:45.124Z,20.38
2019-03-21T12:25:45.336Z,20.13
2019-03-21T12:26:45.530Z,19.81
2019-03-21T12:27:45.723Z,19.73
2019-03-21T12:28:45.923Z,19.11
2019-03-21T12:29:46.118Z,18.75
2019-03-21T12:30:46.313Z,18.62
2019-03-21T12:31:46.521Z,18.57
2019-03-21T12:32:46.720Z,18.63
2019-03-21T12:33:46.908Z,18.27
2019-03-21T12:34:47.111Z,18.15
2019-03-21T12:35:47.303Z,18.39
2019-03-21T12:36:47.494Z,18.60
2019-03-21T12:37:47.687Z,18.69
2019-03-21T12:38:47.892Z,18.41
2019-03-21T12:39:48.077Z,18.25
2019-03-21T12:40:48.260Z,17.89
2019-03-21T12:41:48.461Z,17.62
2019-03-21T12:42:48.652Z,17.68
2019-03-21T12:43:48.844Z,17.86
2019-03-21T12:44:49.641Z,17.78
2019-03-21T12:45:49.233Z,17.84
2019-03-21T12:46:49.433Z,17.86
2019-03-21T12:47:49.632Z,17.96
2019-03-21T12:48:49.826Z,18.20
2019-03-21T12:49:50.016Z,18.41
2019-03-21T12:50:50.218Z,18.41
2019-03-21T12:51:50.403Z,18.29
2019-03-21T12:52:50.608Z,18.29
2019-03-21T12:53:50.811Z,18.42
2019-03-21T12:54:51.053Z,18.44
2019-03-21T12:55:51.173Z,18.44
2019-03-21T12:56:53.040Z,18.57
2019-03-21T12:57:51.595Z,18.65
2019-03-21T12:58:51.792Z,18.66
2019-03-21T12:59:51.996Z,18.63
2019-03-21T13:00:52.188Z,18.63
2019-03-21T13:01:52.382Z,18.39
2019-03-21T13:02:52.579Z,18.18
2019-03-21T13:03:52.779Z,18.23
2019-03-21T13:04:53.263Z,18.23
2019-03-21T13:05:53.193Z,17.84
2019-03-21T13:06:53.390Z,17.81
2019-03-21T13:07:53.588Z,17.90
2019-03-21T13:08:53.786Z,17.99
2019-03-21T13:09:54.056Z,17.95
2019-03-21T13:10:54.185Z,18.05
2019-03-21T13:11:54.376Z,17.90
2019-03-21T13:12:54.557Z,17.84
2019-03-21T13:13:54.755Z,17.99